createdAt,value
2018-07-28T00:00:09.449Z,0.0
2018-07-28T00:10:20.740Z,0.0
2018-07-28T00:20:34.826Z,0.0
2018-07-28T00:30:48.836Z,0.0
2018-07-28T00:41:02.240Z,0.0
2018-07-28T00:51:15.688Z,0.0
2018-07-28T01:02:01.093Z,0.0
2018-07-28T01:12:14.769Z,0.0
2018-07-28T01:22:28.915Z,0.0
2018-07-28T01:32:42.858Z,0.0
2018-07-28T01:42:57.408Z,0.0
2018-07-28T01:53:11.288Z,0.0
2018-07-28T02:03:24.980Z,0.0
2018-07-28T02:13:38.732Z,0.0
2018-07-28T02:23:52.121Z,0.0
2018-07-28T02:34:06.344Z,0.0
2018-07-28T02:44:20.717Z,0.0
2018-07-28T02:54:34.770Z,0.0
2018-07-28T03:04:50.189Z,0.0
2018-07-28T03:15:05.091Z,0.0
2018-07-28T03:25:19.342Z,0.0
2018-07-28T03:35:34.638Z,0.0
2018-07-28T03:45:48.766Z,5.0
2018-07-28T03:56:00.049Z,10.0
2018-07-28T04:06:14.316Z,20.0
2018-07-28T04:16:28.978Z,30.0
2018-07-28T04:26:42.707Z,45.0
2018-07-28T04:36:57.121Z,60.0
2018-07-28T04:47:08.215Z,75.0
2018-07-28T04:57:21.703Z,85.0
2018-07-28T05:07:36.212Z,95.0
2018-07-28T05:17:48.014Z,110.0
2018-07-28T05:28:01.473Z,120.0
2018-07-28T05:38:16.604Z,135.0
2018-07-28T05:48:31.362Z,145.0
2018-07-28T05:58:45.172Z,155.0
2018-07-28T06:09:00.248Z,175.0
2018-07-28T06:19:45.570Z,190.0
2018-07-28T06:30:30.449Z,205.0
2018-07-28T06:40:44.433Z,225.0
2018-07-28T06:50:58.199Z,250.0
2018-07-28T07:01:12.381Z,745.0
2018-07-28T07:11:26.579Z,950.0
2018-07-28T07:21:40.803Z,565.0
2018-07-28T07:31:54.903Z,555.0
2018-07-28T07:42:09.209Z,570.0
2018-07-28T07:52:21.303Z,635.0
2018-07-28T08:02:35.640Z,580.0
2018-07-28T08:12:49.822Z,295.0
2018-07-28T08:23:39.097Z,225.0
2018-07-28T08:33:52.731Z,180.0
2018-07-28T08:44:07.498Z,120.0
2018-07-28T08:56:27.205Z,145.0
2018-07-28T09:06:41.788Z,310.0
2018-07-28T09:16:55.828Z,285.0
2018-07-28T09:27:10.371Z,250.0
2018-07-28T09:37:23.963Z,225.0
2018-07-28T09:48:09.839Z,180.0
2018-07-28T09:58:24.150Z,225.0
2018-07-28T10:08:38.665Z,215.0
2018-07-28T10:18:52.307Z,190.0
2018-07-28T10:29:37.922Z,155.0
2018-07-28T10:39:49.399Z,190.0
2018-07-28T10:50:04.749Z,185.0
2018-07-28T11:00:16.771Z,255.0
2018-07-28T11:10:28.660Z,505.0
2018-07-28T11:20:42.112Z,485.0
2018-07-28T11:30:56.432Z,345.0
2018-07-28T11:41:10.516Z,670.0
2018-07-28T11:51:24.982Z,950.0
2018-07-28T12:02:10.819Z,485.0
2018-07-28T12:12:27.763Z,2170.0
2018-07-28T12:22:42.576Z,2150.0
2018-07-28T12:32:56.619Z,1405.0
2018-07-28T12:43:41.840Z,950.0
2018-07-28T12:53:55.357Z,1890.0
2018-07-28T13:04:42.201Z,1950.0
2018-07-28T13:14:54.251Z,2090.0
2018-07-28T13:25:08.429Z,2030.0
2018-07-28T13:35:54.317Z,1880.0
2018-07-28T13:46:05.895Z,1810.0
2018-07-28T13:56:19.741Z,1610.0
2018-07-28T14:06:32.575Z,615.0
2018-07-28T14:16:46.317Z,455.0
2018-07-28T14:37:19.191Z,645.0
2018-07-28T14:47:33.117Z,310.0
2018-07-28T14:58:18.969Z,30.0
2018-07-28T15:09:04.436Z,15.0
2018-07-28T15:19:15.923Z,95.0
2018-07-28T15:30:01.546Z,125.0
2018-07-28T15:40:47.029Z,170.0
2018-07-28T15:51:01.349Z,300.0
2018-07-28T16:01:16.254Z,385.0
2018-07-28T16:11:29.481Z,465.0
2018-07-28T16:21:43.039Z,380.0
2018-07-28T16:31:57.520Z,305.0
2018-07-28T16:42:45.085Z,300.0
2018-07-28T16:53:32.045Z,300.0
2018-07-28T17:03:46.168Z,265.0
2018-07-28T17:14:32.594Z,245.0
2018-07-28T17:24:46.057Z,170.0
2018-07-28T17:35:01.059Z,155.0
2018-07-28T17:45:46.910Z,130.0
2018-07-28T17:56:32.510Z,95.0
2018-07-28T18:07:17.558Z,70.0
2018-07-28T18:17:32.084Z,60.0
2018-07-28T18:28:47.143Z,50.0
2018-07-28T18:40:03.818Z,55.0
2018-07-28T18:51:04.047Z,45.0
2018-07-28T19:02:10.372Z,30.0
2018-07-28T19:13:18.852Z,20.0
2018-07-28T19:24:21.455Z,10.0
2018-07-28T19:35:22.199Z,0.0
2018-07-28T19:45:57.624Z,0.0
2018-07-28T19:56:19.014Z,0.0
2018-07-28T20:07:24.564Z,0.0
2018-07-28T20:17:39.510Z,0.0
2018-07-28T20:30:20.889Z,0.0
2018-07-28T20:42:39.525Z,0.0
2018-07-28T21:07:36.627Z,0.0
2018-07-28T21:17:56.841Z,0.0
2018-07-28T21:28:50.234Z,0.0
2018-07-28T21:39:11.508Z,0.0
2018-07-28T21:49:35.894Z,0.0
2018-07-28T21:59:50.705Z,0.0
2018-07-28T22:10:05.700Z,0.0
2018-07-28T22:20:19.126Z,0.0
2018-07-28T22:30:33.351Z,0.0
2018-07-28T22:40:47.527Z,0.0
2018-07-28T22:51:01.827Z,0.0
2018-07-28T23:01:15.954Z,0.0
2018-07-28T23:12:01.528Z,0.0
2018-07-28T23:22:15.273Z,0.0
2018-07-28T23:32:30.311Z,0.0
2018-07-28T23:42:44.635Z,0.0
2018-07-28T23:53:29.904Z,0.0
